This is the latest recevied weather packets stored in our database for station/object WAYLND-WX. If no packets are shown the sender has not sent any weather packets the latest 10 day(s).
| Time | Temp. | Humidity | Pressure | Rain* | Wind** | Luminosity | Snow |
|---|---|---|---|---|---|---|---|
| 1777800662 | 2.78° C | 71% | 985.3 hPa | 0 mm | - | - | - |
| 1777799742 | 1.67° C | 71% | 985.2 hPa | 0 mm | - | - | - |
| 1777798871 | 1.67° C | 71% | 985.2 hPa | 0 mm | - | - | - |
| 1777797942 | 2.22° C | 66% | 985.6 hPa | 0 mm | - | - | - |
| 1777797061 | 2.22° C | 70% | 985.8 hPa | 0 mm | - | - | - |
| 1777796142 | 1.67° C | 70% | 985.7 hPa | 0 mm | - | - | - |
| 1777795267 | 1.67° C | 70% | 985.1 hPa | 0 mm | - | - | - |
| 1777794342 | 1.67° C | 66% | 986 hPa | 0 mm | - | - | - |
| 1777793461 | 2.22° C | 66% | 986 hPa | 0 mm | - | - | - |
| 1777792541 | 2.22° C | 66% | 985.9 hPa | 0 mm | - | - | - |
| 1777791670 | 2.22° C | 66% | 985.9 hPa | 0 mm | - | - | - |
| 1777790743 | 2.22° C | 63% | 986.8 hPa | 0 mm | - | - | - |
| 1777789858 | 2.22° C | 66% | 986.8 hPa | 0 mm | - | - | - |
| 1777788942 | 2.22° C | 66% | 986.9 hPa | 0 mm | - | - | - |
| 1777788082 | 2.78° C | 66% | 986.9 hPa | 0 mm | - | - | - |
| 1777787142 | 2.78° C | 65% | 987.3 hPa | 0 mm | - | - | - |
| 1777785341 | 2.22° C | 68% | 987.6 hPa | 0 mm | - | - | - |
| 1777784471 | 2.22° C | 68% | 987.6 hPa | 0 mm | - | - | - |
| 1777783541 | 2.22° C | 68% | 987.8 hPa | 0 mm | - | - | - |
| 1777782661 | 2.22° C | 68% | 987.2 hPa | 0 mm | - | - | - |
| 1777781742 | 2.78° C | 68% | 987.2 hPa | 0 mm | - | - | - |
| 1777780873 | 2.78° C | 68% | 987.2 hPa | 0 mm | - | - | - |
| 1777779941 | 2.78° C | 62% | 988.5 hPa | 0 mm | - | - | - |
| 1777779063 | 2.78° C | 63% | 988.6 hPa | 0 mm | - | - | - |
| 1777778141 | 3.33° C | 63% | 988.6 hPa | 0 mm | - | - | - |
* Rain latest hour (hover to see other rain measurements)
** Current wind speed in m/s (hover to see current wind gust speed)